Página principal
METAR-TAF:

METAR-TAF

Aeroportos :

Cape Romanzof, Alasca, Estados Unidos

latitude: 61-47N, longitude: 166-02W, altura: 139 m

Observação actual do tempo

O boletim foi feito há 49 minutos, às 16:55 UTC
Vento calmo
Temperatura 10°C
Humidade 71%
Pressão 1024 hPa
Visibilidade: 16.1 km
Céu limpo

METAR: PACZ 151655Z AUTO 00000KT 10SM CLR 10/05 A3025 RMK AO2 SLP247 T01000054

Hora: 09:44 (17:44 UTC)


TAF: em falta

Observações e previsões do tempo de mais de 4000 aeroportos (mensagens METAR e TAF).

As estações disponíveis são os pontos amarelos e vermelhos sobre o mapa.

Mova o rato sobre o mapa para ver o nome da estação.

Depois clique no ponto para visualizar as observações e previsões meteorológicas.

Para alterar o mapa : clique nos botões verdes com uma cruz preta para aumentar o zoom; no botão verde com uma pitada de zoom; ou nas setas verdes para mapas adjacentes.


METAR-TAF: